createdAt,value
2023-02-15T00:01:17.041Z,0.06
2023-02-15T00:03:45.237Z,0.06
2023-02-15T00:06:12.134Z,0.08
2023-02-15T00:08:38.869Z,0.04
2023-02-15T00:11:07.072Z,0.02
2023-02-15T00:13:33.809Z,0.12
2023-02-15T00:16:05.120Z,0.11
2023-02-15T00:18:31.941Z,0.10
2023-02-15T00:21:05.243Z,0.11
2023-02-15T00:23:32.028Z,0.10
2023-02-15T00:26:06.824Z,0.15
2023-02-15T00:28:33.977Z,0.19
2023-02-15T00:31:05.532Z,0.12
2023-02-15T00:33:32.329Z,0.09
2023-02-15T00:36:01.368Z,-0.00
2023-02-15T00:38:29.083Z,-0.07
2023-02-15T00:40:56.669Z,-0.11
2023-02-15T00:43:23.597Z,-0.15
2023-02-15T00:45:50.492Z,-0.27
2023-02-15T00:48:17.815Z,-0.35
2023-02-15T00:50:46.414Z,-0.29
2023-02-15T00:53:14.515Z,-0.22
2023-02-15T00:55:41.350Z,-0.12
2023-02-15T00:58:08.309Z,-0.03
2023-02-15T01:00:35.117Z,0.00
2023-02-15T01:03:01.897Z,0.01
2023-02-15T01:05:29.055Z,0.01
2023-02-15T01:07:55.864Z,-0.10
2023-02-15T01:10:24.274Z,-0.26
2023-02-15T01:12:51.336Z,-0.27
2023-02-15T01:15:18.444Z,-0.23
2023-02-15T01:17:45.530Z,-0.26
2023-02-15T01:20:12.924Z,-0.25
2023-02-15T01:22:39.633Z,-0.25
2023-02-15T01:25:06.953Z,-0.18
2023-02-15T01:27:35.071Z,-0.19
2023-02-15T01:30:02.085Z,-0.10
2023-02-15T01:32:28.903Z,-0.13
2023-02-15T01:34:55.616Z,-0.22
2023-02-15T01:37:22.324Z,-0.33
2023-02-15T01:39:49.039Z,-0.46
2023-02-15T01:42:22.183Z,-0.49
2023-02-15T01:44:53.103Z,-0.53
2023-02-15T01:50:02.027Z,-0.42
2023-02-15T01:52:29.222Z,-0.30
2023-02-15T01:54:56.530Z,-0.28
2023-02-15T01:57:27.505Z,-0.36
2023-02-15T02:00:00.545Z,-0.42
2023-02-15T02:02:28.698Z,-0.47
2023-02-15T02:04:58.900Z,-0.43
2023-02-15T02:07:28.902Z,-0.39
2023-02-15T02:09:55.698Z,-0.36
2023-02-15T02:12:24.174Z,-0.35
2023-02-15T02:14:52.629Z,-0.44
2023-02-15T02:17:28.456Z,-0.48
2023-02-15T02:20:26.188Z,-0.51
2023-02-15T02:23:13.494Z,-0.40
2023-02-15T02:26:22.506Z,-0.37
2023-02-15T02:29:34.428Z,-0.38
2023-02-15T02:32:29.823Z,-0.44
2023-02-15T02:35:05.343Z,-0.46
2023-02-15T02:37:44.234Z,-0.56
2023-02-15T02:40:17.880Z,-0.55
2023-02-15T02:42:48.663Z,-0.57
2023-02-15T02:45:21.925Z,-0.63
2023-02-15T02:47:53.804Z,-0.68
2023-02-15T02:50:26.225Z,-0.72
2023-02-15T02:52:54.712Z,-0.64
2023-02-15T02:55:26.583Z,-0.72
2023-02-15T02:57:56.548Z,-0.75
2023-02-15T03:00:26.023Z,-0.70
2023-02-15T03:02:59.696Z,-0.62
2023-02-15T03:05:30.287Z,-0.54
2023-02-15T03:07:57.461Z,-0.48
2023-02-15T03:10:25.378Z,-0.45
2023-02-15T03:12:53.697Z,-0.52
2023-02-15T03:15:22.943Z,-0.58
2023-02-15T03:17:56.093Z,-0.56
2023-02-15T03:20:26.549Z,-0.63
2023-02-15T03:22:59.659Z,-0.80
2023-02-15T03:25:32.155Z,-0.66
2023-02-15T03:28:04.281Z,-0.58
2023-02-15T03:30:33.343Z,-0.54
2023-02-15T03:33:01.829Z,-0.49
2023-02-15T03:35:37.420Z,-0.45
2023-02-15T03:38:08.584Z,-0.43
2023-02-15T03:40:38.964Z,-0.39
2023-02-15T03:43:13.841Z,-0.35
2023-02-15T03:45:44.020Z,-0.38
2023-02-15T03:48:10.813Z,-0.40
2023-02-15T03:50:40.174Z,-0.39
2023-02-15T03:53:12.706Z,-0.35
2023-02-15T03:55:39.647Z,-0.35
2023-02-15T03:58:06.489Z,-0.40
2023-02-15T04:00:36.607Z,-0.45
2023-02-15T04:03:13.653Z,-0.47
2023-02-15T04:05:40.498Z,-0.49
2023-02-15T04:08:08.947Z,-0.49
2023-02-15T04:10:35.812Z,-0.55
2023-02-15T04:13:02.660Z,-0.66
2023-02-15T04:15:29.367Z,-0.78
2023-02-15T04:17:56.166Z,-0.84
2023-02-15T04:20:23.012Z,-0.82
2023-02-15T04:22:49.745Z,-0.81
2023-02-15T04:25:17.924Z,-0.74
2023-02-15T04:27:46.521Z,-0.64
2023-02-15T04:30:14.972Z,-0.68
2023-02-15T04:32:42.295Z,-0.67
2023-02-15T04:35:09.826Z,-0.72
2023-02-15T04:37:36.772Z,-0.71
2023-02-15T04:40:04.287Z,-0.69
2023-02-15T04:42:32.762Z,-0.67
2023-02-15T04:44:59.583Z,-0.67
2023-02-15T04:47:26.472Z,-0.69
2023-02-15T04:49:53.361Z,-0.69
2023-02-15T04:52:20.269Z,-0.77
2023-02-15T04:54:47.207Z,-0.76
2023-02-15T04:57:14.345Z,-0.93
2023-02-15T04:59:42.451Z,-1.20
2023-02-15T05:02:09.176Z,-1.06
2023-02-15T05:04:36.049Z,-0.92
2023-02-15T05:07:02.984Z,-0.89
2023-02-15T05:09:29.693Z,-0.97
2023-02-15T05:11:56.550Z,-1.01
2023-02-15T05:14:23.347Z,-0.98
2023-02-15T05:16:51.503Z,-0.90
2023-02-15T05:19:18.267Z,-0.88
2023-02-15T05:21:45.142Z,-0.81
2023-02-15T05:24:12.815Z,-0.79
2023-02-15T05:26:39.600Z,-0.88
2023-02-15T05:29:06.486Z,-0.90
2023-02-15T05:31:34.447Z,-0.86
2023-02-15T05:34:03.168Z,-0.86
2023-02-15T05:36:30.205Z,-0.85
2023-02-15T05:38:57.063Z,-0.85
2023-02-15T05:41:23.800Z,-0.88
2023-02-15T05:43:50.576Z,-0.96
2023-02-15T05:46:17.348Z,-1.02
2023-02-15T05:48:44.148Z,-0.98
2023-02-15T05:51:13.876Z,-1.01
2023-02-15T05:53:41.577Z,-0.96
2023-02-15T05:56:10.478Z,-0.98
2023-02-15T05:58:39.854Z,-1.03
2023-02-15T06:01:10.102Z,-1.05
2023-02-15T06:03:36.957Z,-1.16
2023-02-15T06:06:04.254Z,-1.31
2023-02-15T06:08:33.248Z,-1.34
2023-02-15T06:11:00.429Z,-1.37
2023-02-15T06:13:27.300Z,-1.37
2023-02-15T06:15:54.313Z,-1.41
2023-02-15T06:18:21.403Z,-1.33
2023-02-15T06:20:48.848Z,-1.24
2023-02-15T06:23:16.180Z,-1.15
2023-02-15T06:25:45.948Z,-1.18
2023-02-15T06:28:12.957Z,-1.17
2023-02-15T06:30:40.104Z,-1.10
2023-02-15T06:33:07.045Z,-0.97
2023-02-15T06:35:34.397Z,-0.88
2023-02-15T06:38:01.179Z,-0.87
2023-02-15T06:40:28.370Z,-0.87
2023-02-15T06:42:56.993Z,-0.96
2023-02-15T06:45:23.928Z,-0.95
2023-02-15T06:47:50.869Z,-0.89
2023-02-15T06:50:17.820Z,-0.87
2023-02-15T06:52:44.640Z,-0.82
2023-02-15T06:55:11.465Z,-0.80
2023-02-15T06:57:38.379Z,-0.76
2023-02-15T07:00:07.836Z,-0.75
2023-02-15T07:02:34.605Z,-0.70
2023-02-15T07:05:01.609Z,-0.82
2023-02-15T07:07:28.356Z,-0.92
2023-02-15T07:09:55.157Z,-1.21
2023-02-15T07:12:21.940Z,-1.11
2023-02-15T07:14:48.939Z,-1.23
2023-02-15T07:17:35.101Z,-1.11
2023-02-15T07:20:03.027Z,-0.99
2023-02-15T07:22:29.775Z,-0.96
2023-02-15T07:24:56.599Z,-0.92
2023-02-15T07:27:23.573Z,-0.86
2023-02-15T07:29:50.421Z,-0.85
2023-02-15T07:32:18.655Z,-0.78
2023-02-15T07:34:45.492Z,-0.74
2023-02-15T07:37:12.341Z,-0.60
2023-02-15T07:39:39.222Z,-0.47
2023-02-15T07:42:06.073Z,-0.30
2023-02-15T07:44:32.905Z,-0.19
2023-02-15T07:46:59.705Z,0.15
2023-02-15T07:49:27.930Z,0.36
2023-02-15T07:51:54.733Z,0.62
2023-02-15T07:54:21.524Z,0.90
2023-02-15T07:56:48.316Z,1.12
2023-02-15T07:59:15.232Z,1.37
2023-02-15T08:01:42.005Z,1.62
2023-02-15T08:04:09.491Z,1.87
2023-02-15T08:06:38.646Z,2.09
2023-02-15T08:09:06.927Z,2.26
2023-02-15T08:11:35.406Z,2.45
2023-02-15T08:14:04.826Z,2.66
2023-02-15T08:16:34.002Z,2.88
2023-02-15T08:19:04.662Z,3.11
2023-02-15T08:21:33.310Z,3.32
2023-02-15T08:24:02.382Z,3.52
2023-02-15T08:26:30.271Z,3.73
2023-02-15T08:28:57.832Z,3.88
2023-02-15T08:31:24.830Z,4.03
2023-02-15T08:33:53.951Z,4.19
2023-02-15T08:36:22.665Z,4.36
2023-02-15T08:38:49.941Z,4.53
2023-02-15T08:41:20.504Z,4.69
2023-02-15T08:43:48.553Z,4.84
2023-02-15T08:46:16.538Z,4.95
2023-02-15T08:48:44.173Z,5.09
2023-02-15T08:51:13.477Z,5.23
2023-02-15T08:53:41.957Z,5.36
2023-02-15T08:56:09.412Z,5.46
2023-02-15T08:58:38.458Z,5.56
2023-02-15T09:01:15.843Z,5.67
2023-02-15T09:03:42.600Z,5.70
2023-02-15T09:06:09.457Z,5.76
2023-02-15T09:08:36.477Z,5.81
2023-02-15T09:11:08.057Z,5.86
2023-02-15T09:13:35.561Z,5.94
2023-02-15T09:16:06.170Z,6.02
2023-02-15T09:18:34.974Z,6.08
2023-02-15T09:21:05.949Z,6.14
2023-02-15T09:23:32.759Z,6.16
2023-02-15T09:26:03.485Z,6.24
2023-02-15T09:28:30.284Z,6.36
2023-02-15T09:30:57.115Z,6.46
2023-02-15T09:33:25.371Z,6.49
2023-02-15T09:35:52.096Z,6.59
2023-02-15T09:38:18.856Z,6.71
2023-02-15T09:40:58.452Z,6.83
2023-02-15T09:43:39.942Z,6.91
2023-02-15T09:46:22.567Z,6.99
2023-02-15T09:48:56.996Z,7.09
2023-02-15T09:51:51.433Z,7.17
2023-02-15T09:54:33.823Z,7.24
2023-02-15T09:57:09.440Z,7.33
2023-02-15T09:59:46.040Z,7.43
2023-02-15T10:02:28.478Z,7.56
2023-02-15T10:05:09.437Z,7.64
2023-02-15T10:07:54.785Z,7.58
2023-02-15T10:10:29.552Z,7.68
2023-02-15T10:13:12.420Z,7.71
2023-02-15T10:15:54.036Z,7.75
2023-02-15T10:18:39.687Z,7.88
2023-02-15T10:21:17.852Z,7.86
2023-02-15T10:24:05.921Z,8.00
2023-02-15T10:26:38.955Z,8.01
2023-02-15T10:29:13.893Z,8.07
2023-02-15T10:31:49.962Z,8.16
2023-02-15T10:34:18.497Z,8.24
2023-02-15T10:37:04.263Z,8.24
2023-02-15T10:39:39.974Z,8.32
2023-02-15T10:42:17.261Z,8.41
2023-02-15T10:44:59.082Z,8.50
2023-02-15T10:47:45.325Z,8.52
2023-02-15T10:50:24.846Z,8.65
2023-02-15T10:53:08.274Z,8.68
2023-02-15T10:55:48.027Z,8.71
2023-02-15T10:58:25.809Z,8.67
2023-02-15T11:01:00.914Z,8.81
2023-02-15T11:03:44.753Z,8.85
2023-02-15T11:06:15.432Z,8.96
2023-02-15T11:08:47.423Z,9.02
2023-02-15T11:11:22.461Z,9.11
2023-02-15T11:13:54.050Z,9.14
2023-02-15T11:16:25.345Z,9.22
2023-02-15T11:18:55.804Z,9.30
2023-02-15T11:21:27.501Z,9.33
2023-02-15T11:23:56.214Z,9.32
2023-02-15T11:26:29.630Z,9.37
2023-02-15T11:29:00.443Z,9.23
2023-02-15T11:31:36.019Z,9.28
2023-02-15T11:34:07.217Z,9.27
2023-02-15T11:36:38.545Z,9.36
2023-02-15T11:39:13.077Z,9.43
2023-02-15T11:41:42.817Z,9.44
2023-02-15T11:44:16.260Z,9.44
2023-02-15T11:46:43.332Z,9.48
2023-02-15T11:49:22.140Z,9.50
2023-02-15T11:51:49.160Z,9.53
2023-02-15T11:54:18.826Z,9.60
2023-02-15T11:56:45.625Z,9.68
2023-02-15T11:59:18.191Z,9.73
2023-02-15T12:01:46.837Z,9.77
2023-02-15T12:04:21.571Z,9.76
2023-02-15T12:06:54.234Z,9.79
2023-02-15T12:09:35.463Z,9.71
2023-02-15T12:12:22.337Z,9.64
2023-02-15T12:14:50.499Z,9.65
2023-02-15T12:17:18.239Z,9.72
2023-02-15T12:19:45.849Z,9.81
2023-02-15T12:22:22.715Z,9.87
2023-02-15T12:24:53.602Z,9.92
2023-02-15T12:27:22.483Z,9.96
2023-02-15T12:29:52.310Z,9.91
2023-02-15T12:32:23.262Z,9.92
2023-02-15T12:34:52.283Z,9.93
2023-02-15T12:37:23.920Z,9.92
2023-02-15T12:39:57.303Z,9.92
2023-02-15T12:42:25.456Z,9.84
2023-02-15T12:45:00.963Z,9.88
2023-02-15T12:47:29.559Z,9.86
2023-02-15T12:50:13.040Z,9.91
2023-02-15T12:52:40.246Z,9.92
2023-02-15T12:55:20.195Z,9.93
2023-02-15T12:57:47.161Z,9.98
2023-02-15T13:00:28.683Z,9.98
2023-02-15T13:02:58.265Z,10.01
2023-02-15T13:05:31.821Z,10.02
2023-02-15T13:08:00.996Z,10.05
2023-02-15T13:10:32.212Z,10.03
2023-02-15T13:12:59.690Z,10.03
2023-02-15T13:15:31.611Z,9.99
2023-02-15T13:18:00.389Z,9.96
2023-02-15T13:20:28.670Z,9.93
2023-02-15T13:22:59.968Z,9.93
2023-02-15T13:25:32.099Z,9.93
2023-02-15T13:28:04.072Z,9.93
2023-02-15T13:30:34.765Z,9.94
2023-02-15T13:33:05.661Z,9.87
2023-02-15T13:35:40.713Z,9.91
2023-02-15T13:38:28.083Z,9.87
2023-02-15T13:41:00.415Z,9.87
2023-02-15T13:43:39.843Z,9.85
2023-02-15T13:46:19.998Z,9.78
2023-02-15T13:48:56.845Z,9.71
2023-02-15T13:51:33.965Z,9.68
2023-02-15T13:54:16.680Z,9.65
2023-02-15T13:56:59.501Z,9.60
2023-02-15T13:59:44.587Z,9.61
2023-02-15T14:02:38.457Z,9.61
2023-02-15T14:05:25.318Z,9.57
2023-02-15T14:08:02.186Z,9.53
2023-02-15T14:10:40.259Z,9.50
2023-02-15T14:13:32.153Z,9.45
2023-02-15T14:16:04.124Z,9.41
2023-02-15T14:18:36.862Z,9.37
2023-02-15T14:21:11.416Z,9.35
2023-02-15T14:23:49.448Z,9.33
2023-02-15T14:26:25.717Z,9.30
2023-02-15T14:29:04.390Z,9.23
2023-02-15T14:31:35.871Z,9.16
2023-02-15T14:34:02.731Z,9.11
2023-02-15T14:36:31.381Z,9.05
2023-02-15T14:39:07.273Z,9.00
2023-02-15T14:41:40.894Z,8.97
2023-02-15T14:44:16.809Z,8.96
2023-02-15T14:46:50.797Z,8.88
2023-02-15T14:49:20.803Z,8.78
2023-02-15T14:52:03.320Z,8.72
2023-02-15T14:54:56.599Z,8.65
2023-02-15T14:57:35.949Z,8.56
2023-02-15T15:00:32.319Z,8.50
2023-02-15T15:02:59.200Z,8.44
2023-02-15T15:05:34.023Z,8.39
2023-02-15T15:08:03.959Z,8.33
2023-02-15T15:10:38.767Z,8.27
2023-02-15T15:13:45.685Z,8.19
2023-02-15T15:16:31.057Z,8.08
2023-02-15T15:18:58.435Z,7.99
2023-02-15T15:21:53.999Z,7.88
2023-02-15T15:24:50.921Z,7.68
2023-02-15T15:27:46.768Z,7.64
2023-02-15T15:31:01.181Z,7.55
2023-02-15T15:34:17.572Z,7.44
2023-02-15T15:37:26.248Z,7.28
2023-02-15T15:40:25.876Z,7.14
2023-02-15T15:43:31.724Z,6.99
2023-02-15T15:46:24.067Z,6.81
2023-02-15T15:48:53.329Z,6.68
2023-02-15T15:51:25.746Z,6.60
2023-02-15T15:53:53.996Z,6.50
2023-02-15T15:56:25.104Z,6.37
2023-02-15T15:58:55.357Z,6.26
2023-02-15T16:01:27.412Z,6.23
2023-02-15T16:03:56.644Z,6.23
2023-02-15T16:06:34.398Z,6.14
2023-02-15T16:09:17.043Z,6.06
2023-02-15T16:11:44.244Z,5.80
2023-02-15T16:14:14.591Z,5.51
2023-02-15T16:16:41.967Z,5.21
2023-02-15T16:19:20.587Z,4.93
2023-02-15T16:21:49.775Z,4.70
2023-02-15T16:24:29.454Z,4.49
2023-02-15T16:27:12.220Z,4.25
2023-02-15T16:29:39.098Z,4.10
2023-02-15T16:32:16.471Z,3.98
2023-02-15T16:34:52.092Z,3.95
2023-02-15T16:37:22.114Z,3.83
2023-02-15T16:39:48.904Z,3.70
2023-02-15T16:42:17.021Z,3.56
2023-02-15T16:44:44.627Z,3.39
2023-02-15T16:47:17.560Z,3.28
2023-02-15T16:49:47.882Z,3.24
2023-02-15T16:52:20.084Z,3.22
2023-02-15T16:54:53.598Z,3.12
2023-02-15T16:57:24.489Z,3.02
2023-02-15T16:59:54.377Z,2.89
2023-02-15T17:02:49.381Z,2.79
2023-02-15T17:05:17.348Z,2.79
2023-02-15T17:07:51.288Z,2.76
2023-02-15T17:10:31.632Z,2.72
2023-02-15T17:13:02.889Z,2.80
2023-02-15T17:15:32.776Z,3.03
2023-02-15T17:18:03.971Z,3.14
2023-02-15T17:20:33.948Z,3.10
2023-02-15T17:23:02.690Z,2.99
2023-02-15T17:25:37.614Z,2.92
2023-02-15T17:28:05.738Z,2.86
2023-02-15T17:30:35.122Z,2.78
2023-02-15T17:33:04.196Z,2.71
2023-02-15T17:35:32.976Z,2.60
2023-02-15T17:38:16.234Z,2.49
2023-02-15T17:40:44.369Z,2.45
2023-02-15T17:43:11.290Z,2.36
2023-02-15T17:45:44.796Z,2.25
2023-02-15T17:48:26.883Z,2.23
2023-02-15T17:50:53.665Z,2.16
2023-02-15T17:53:20.380Z,2.13
2023-02-15T17:55:48.528Z,2.08
2023-02-15T17:58:17.262Z,2.07
2023-02-15T18:00:45.940Z,2.04
2023-02-15T18:03:13.220Z,1.99
2023-02-15T18:05:40.059Z,2.02
2023-02-15T18:08:11.410Z,2.02
2023-02-15T18:10:38.261Z,2.01
2023-02-15T18:13:06.451Z,1.84
2023-02-15T18:15:33.297Z,1.82
2023-02-15T18:18:00.130Z,1.78
2023-02-15T18:20:32.840Z,1.70
2023-02-15T18:22:59.636Z,1.71
2023-02-15T18:25:26.519Z,1.81
2023-02-15T18:27:55.124Z,1.85
2023-02-15T18:30:27.377Z,1.92
2023-02-15T18:32:56.214Z,1.84
2023-02-15T18:35:28.595Z,1.74
2023-02-15T18:37:56.184Z,1.69
2023-02-15T18:40:26.797Z,1.70
2023-02-15T18:42:54.244Z,1.93
2023-02-15T18:45:24.428Z,2.03
2023-02-15T18:47:51.906Z,2.12
2023-02-15T18:50:20.212Z,2.08
2023-02-15T18:52:48.936Z,1.82
2023-02-15T18:55:18.862Z,1.69
2023-02-15T18:57:46.388Z,1.58
2023-02-15T19:00:17.957Z,1.45
2023-02-15T19:02:46.526Z,1.49
2023-02-15T19:05:14.060Z,1.49
2023-02-15T19:07:41.846Z,1.48
2023-02-15T19:10:13.460Z,1.52
2023-02-15T19:12:40.361Z,1.53
2023-02-15T19:15:11.054Z,1.53
2023-02-15T19:17:37.764Z,1.55
2023-02-15T19:20:07.639Z,1.54
2023-02-15T19:22:36.466Z,1.48
2023-02-15T19:25:05.345Z,1.39
2023-02-15T19:27:35.086Z,1.36
2023-02-15T19:30:11.031Z,1.38
2023-02-15T19:32:37.912Z,1.42
2023-02-15T19:35:06.904Z,1.39
2023-02-15T19:37:37.182Z,1.45
2023-02-15T19:40:04.580Z,1.45
2023-02-15T19:42:31.432Z,1.40
2023-02-15T19:44:58.295Z,1.39
2023-02-15T19:47:27.151Z,1.39
2023-02-15T19:49:53.966Z,1.32
2023-02-15T19:52:22.704Z,1.23
2023-02-15T19:54:49.927Z,1.19
2023-02-15T19:57:16.743Z,1.13
2023-02-15T19:59:43.478Z,1.09
2023-02-15T20:02:13.402Z,1.10
2023-02-15T20:04:43.088Z,1.14
2023-02-15T20:07:25.963Z,1.06
2023-02-15T20:09:54.276Z,1.00
2023-02-15T20:12:23.196Z,0.96
2023-02-15T20:14:50.600Z,0.97
2023-02-15T20:17:19.472Z,1.00
2023-02-15T20:19:46.306Z,1.03
2023-02-15T20:22:20.615Z,1.07
2023-02-15T20:24:47.426Z,1.05
2023-02-15T20:27:17.463Z,1.13
2023-02-15T20:29:44.280Z,1.28
2023-02-15T20:32:11.913Z,1.13
2023-02-15T20:34:39.204Z,1.07
2023-02-15T20:37:06.130Z,1.00
2023-02-15T20:39:33.976Z,1.05
2023-02-15T20:42:01.374Z,1.05
2023-02-15T20:44:31.995Z,1.06
2023-02-15T20:46:59.335Z,1.05
2023-02-15T20:49:27.592Z,0.98
2023-02-15T20:51:56.338Z,0.95
2023-02-15T20:54:27.144Z,0.98
2023-02-15T20:56:55.858Z,1.04
2023-02-15T20:59:25.908Z,1.13
2023-02-15T21:01:59.927Z,1.13
2023-02-15T21:04:31.388Z,1.04
2023-02-15T21:06:59.365Z,0.99
2023-02-15T21:09:26.199Z,1.13
2023-02-15T21:11:55.513Z,1.05
2023-02-15T21:14:25.850Z,0.98
2023-02-15T21:16:53.215Z,0.88
2023-02-15T21:19:25.304Z,0.90
2023-02-15T21:21:53.507Z,0.83
2023-02-15T21:24:23.438Z,0.86
2023-02-15T21:26:50.502Z,0.86
2023-02-15T21:29:19.157Z,0.90
2023-02-15T21:31:47.006Z,0.95
2023-02-15T21:34:14.676Z,0.87
2023-02-15T21:36:43.203Z,0.79
2023-02-15T21:39:15.430Z,0.78
2023-02-15T21:41:46.784Z,0.86
2023-02-15T21:44:18.773Z,0.71
2023-02-15T21:46:45.610Z,0.70
2023-02-15T21:49:12.424Z,0.66
2023-02-15T21:51:39.275Z,0.76
2023-02-15T21:54:11.397Z,0.81
2023-02-15T21:56:38.151Z,0.90
2023-02-15T21:59:10.120Z,0.94
2023-02-15T22:01:36.890Z,1.00
2023-02-15T22:04:03.822Z,0.94
2023-02-15T22:06:30.874Z,0.85
2023-02-15T22:08:57.684Z,0.83
2023-02-15T22:11:29.753Z,0.79
2023-02-15T22:13:56.565Z,0.84
2023-02-15T22:16:23.426Z,0.92
2023-02-15T22:18:50.435Z,0.83
2023-02-15T22:21:17.285Z,0.78
2023-02-15T22:23:43.995Z,0.79
2023-02-15T22:26:23.573Z,0.69
2023-02-15T22:28:51.931Z,0.67
2023-02-15T22:31:20.979Z,0.60
2023-02-15T22:33:48.625Z,0.76
2023-02-15T22:36:23.288Z,0.76
2023-02-15T22:38:50.114Z,0.71
2023-02-15T22:41:17.681Z,0.62
2023-02-15T22:43:46.293Z,0.57
2023-02-15T22:46:17.422Z,0.63
2023-02-15T22:48:45.313Z,0.76
2023-02-15T22:51:13.475Z,0.76
2023-02-15T22:53:40.282Z,0.68
2023-02-15T22:56:12.637Z,0.62
2023-02-15T22:58:39.637Z,0.65
2023-02-15T23:01:06.518Z,0.70
2023-02-15T23:03:34.767Z,0.72
2023-02-15T23:06:01.582Z,0.72
2023-02-15T23:08:28.298Z,0.68
2023-02-15T23:10:56.969Z,0.71
2023-02-15T23:13:26.442Z,0.76
2023-02-15T23:15:58.870Z,0.62
2023-02-15T23:18:29.013Z,0.59
2023-02-15T23:20:59.750Z,0.57
2023-02-15T23:23:31.296Z,0.49
2023-02-15T23:25:58.291Z,0.49
2023-02-15T23:28:27.870Z,0.51
2023-02-15T23:30:55.445Z,0.54
2023-02-15T23:33:24.865Z,0.58
2023-02-15T23:35:51.795Z,0.51
2023-02-15T23:38:23.195Z,0.43
2023-02-15T23:40:54.429Z,0.50
2023-02-15T23:43:22.818Z,0.64
2023-02-15T23:45:49.714Z,0.53
2023-02-15T23:48:23.643Z,0.53
2023-02-15T23:50:50.396Z,0.43
2023-02-15T23:53:17.221Z,0.58
2023-02-15T23:55:45.760Z,0.61
2023-02-15T23:58:17.020Z,0.56
